Estaciones Metar próximas

 

LELL - Sabadell, Spain
Distancia a la estación: E 18km
Actualizado: 06/05/2021 21:00
Despejado
Despejado
 Viento del O
Viento: O 4 km/h
Temperatura: 18°C
Rocío: 14°C
Humedad: 78%
Barómetro: 1014 hPa
Resumen: Despejado
Visibilidad: greater than 10 km
2021/05/06 19:00 LELL 061900Z AUTO 26002KT CAVOK 18/14 Q1014
LEBL - Barcelona Airpor, Spain
Distancia a la estación: SSE 33km
Actualizado: 06/05/2021 21:00
Despejado
Despejado
 Viento del OSO
Viento: OSO 33 km/h
Temperatura: 17°C
Rocío: 15°C
Humedad: 88%
Barómetro: 1014 hPa
Resumen: Despejado
Visibilidad: greater than 10 km
2021/05/06 19:00 LEBL 061900Z 24018KT CAVOK 17/15 Q1014 NOSIG
LERS - Reus (civ/Mil), Spain
Distancia a la estación: SO 75km
Actualizado: 06/05/2021 21:00
Nubes dispersas
Nubes dispersas
 Viento del S
Viento: S 7 km/h
Temperatura: 17°C
Rocío: 15°C
Humedad: 88%
Barómetro: 1015 hPa
Nubes: Nubes dispersas
Visibilidad: 10 km
Detalle Nubes: Nubes dispersas 457 m
2021/05/06 19:00 LERS 061900Z 18004KT 9999 FEW015 17/15 Q1015
 
LEGE - Gerona/Costa Bra, Spain
Distancia a la estación: ENE 83km
Actualizado: 06/05/2021 21:00
Nubes dispersas
Nubes dispersas
 Viento del varies
Viento: varies 4 km/h
Temperatura: 18°C
Rocío: 14°C
Humedad: 78%
Barómetro: 1014 hPa
Nubes: Nubes dispersas
Visibilidad: 10 km
Detalle Nubes: Nubes dispersas 2652 m
2021/05/06 19:00 LEGE 061900Z VRB02KT 9999 FEW087 18/14 Q1014
LFMP - Perpignan/Rivesa, France
Distancia a la estación: NNE 155km
Actualizado: 06/05/2021 21:00
Muy nuboso
Muy nuboso
 Viento del ONO
Viento: ONO 11 km/h
Temperatura: 21°C
Rocío: 9°C
Humedad: 46%
Barómetro: 1014 hPa
Nubes: Muy nuboso
Visibilidad: 10 km
Detalle Nubes: Nubes dispersas 1951 m
Parcialmente nuboso 2499 m
Muy nuboso 3658 m
2021/05/06 19:00 LFMP 061900Z AUTO 29006KT 250V320 9999 FEW064 SCT082 BKN120 21/09 Q1014 NOSIG
LFMK - Carcassonne/Salv, France
Distancia a la estación: N 191km
Actualizado: 06/05/2021 21:00
Cubierto
Cubierto
 Viento del ONO
Viento: ONO 11 km/h
Temperatura: 18°C
Rocío: 11°C
Humedad: 64%
Barómetro: 1015 hPa
Nubes: Cubierto
Visibilidad: 10 km
Detalle Nubes: Muy nuboso 1890 m
Cubierto 3658 m
2021/05/06 19:00 LFMK 061900Z AUTO 30006KT 9999 BKN062 OVC120 18/11 Q1015
 
LEHC - Huesca-Pirineos, Spain
Distancia a la estación: ONO 193km
Actualizado: 06/05/2021 21:00
Despejado
Despejado
 Viento del ONO
Viento: ONO 6 km/h
Temperatura: 19°C
Rocío: 9°C
Humedad: 52%
Barómetro: 1014 hPa
Resumen: Despejado
Visibilidad: greater than 10 km
2021/05/06 19:00 LEHC 061900Z AUTO 30003KT CAVOK 19/09 Q1014
LFMU - Beziers/Vias, France
Distancia a la estación: NNE 232km
Actualizado: 06/05/2021 21:00
Despejado
Despejado
 Viento del varies
Viento: varies 4 km/h
Temperatura: 18°C
Rocío: 14°C
Humedad: 78%
Barómetro: 1014 hPa
Resumen: Despejado
Visibilidad: greater than 10 km
2021/05/06 19:00 LFMU 061900Z AUTO VRB02KT CAVOK 18/14 Q1014 NOSIG
LEPA - Palma De Mallorc, Spain
Distancia a la estación: SSE 233km
Actualizado: 06/05/2021 21:00
Muy nuboso
Muy nuboso
 Viento del SO
Viento: SO 11 km/h
Temperatura: 19°C
Rocío: 15°C
Humedad: 78%
Barómetro: 1017 hPa
Nubes: Muy nuboso
Visibilidad: 10 km
Detalle Nubes: Muy nuboso 518 m
2021/05/06 19:00 LEPA 061900Z 22006KT 9999 BKN017 19/15 Q1017 NOSIG
 
LFBO - Toulouse/Blagnac, France
Distancia a la estación: N 236km
Actualizado: 06/05/2021 21:00
Cubierto
Cubierto
 Viento del NO
Viento: NO 19 km/h
Temperatura: 18°C
Rocío: 10°C
Humedad: 60%
Barómetro: 1016 hPa
Nubes: Cubierto
Visibilidad: 10 km
Detalle Nubes: Parcialmente nuboso 1372 m
Muy nuboso 2682 m
Cubierto 3658 m
2021/05/06 19:00 LFBO 061900Z AUTO 31010KT 9999 SCT045 BKN088 OVC120 18/10 Q1016 NOSIG
LFBT - Tarbes/Ossun, France
Distancia a la estación: NO 239km
Actualizado: 06/05/2021 21:00
Cubierto
Cubierto
 Viento del ONO
Viento: ONO 11 km/h
Temperatura: 16°C
Rocío: 11°C
Humedad: 72%
Barómetro: 1017 hPa
Nubes: Cubierto
Visibilidad: 10 km
Detalle Nubes: Cubierto 945 m
2021/05/06 19:00 LFBT 061900Z AUTO 29006KT 9999 OVC031 16/11 Q1017 NOSIG
LEZG - Zaragoza (mil/Ci, Spain
Distancia a la estación: O 242km
Actualizado: 06/05/2021 21:00
Despejado
Despejado
 Viento del ONO
Viento: ONO 11 km/h
Temperatura: 23°C
Rocío: 10°C
Humedad: 44%
Barómetro: 1013 hPa
Resumen: Despejado
Visibilidad: greater than 10 km
2021/05/06 19:00 LEZG 061900Z 30006KT 260V320 CAVOK 23/10 Q1013